Time;durP1;ratioP1;P1;durP2;ratioP2;P2;SDS_P1;SDS_P2;PMS_P1;PMS_P2;Temp;Humidity;BMP_temperature;BMP_pressure;BME280_temperature;BME280_humidity;BME280_pressure;Samples;Min_cycle;Max_cycle;Signal;HPM_P1;HPM_P2
2022/10/31 00:01:02;;;;;;;2.92;2.42;;;;;;;29.17;22.78;98514.38;6246402;23;20472;-80
2022/10/31 00:03:28;;;;;;;3.35;2.10;;;;;;;29.32;22.57;98517.50;6247316;22;20015;-80
2022/10/31 00:05:54;;;;;;;3.90;2.75;;;;;;;29.53;22.30;98501.78;6247134;23;20020;-80
2022/10/31 00:08:20;;;;;;;3.10;2.25;;;;;;;29.58;22.16;98509.69;6247167;23;20035;-80
2022/10/31 00:10:46;;;;;;;2.67;2.40;;;;;;;29.46;22.25;98505.66;6246827;23;20014;-80
2022/10/31 00:13:13;;;;;;;2.40;2.20;;;;;;;29.34;22.36;98515.81;6247052;22;20012;-80
2022/10/31 00:15:58;;;;;;;3.45;2.92;;;;;;;28.98;23.03;98514.69;6246900;22;20004;-80
2022/10/31 00:18:24;;;;;;;2.13;1.92;;;;;;;29.13;23.20;98510.88;6246960;23;20048;-80
2022/10/31 00:21:02;;;;;;;4.30;2.25;;;;;;;29.34;22.67;98512.19;6247078;23;20000;-80
2022/10/31 00:23:29;;;;;;;2.80;2.30;;;;;;;29.32;22.67;98521.13;6247079;22;20316;-80
2022/10/31 00:25:59;;;;;;;2.67;2.45;;;;;;;29.35;22.10;98525.88;6247035;23;20039;-80
2022/10/31 00:28:25;;;;;;;4.50;3.25;;;;;;;29.33;22.21;98521.94;6246765;22;20004;-80
2022/10/31 00:30:51;;;;;;;3.22;2.55;;;;;;;29.14;22.38;98520.97;6244830;23;20492;-80
2022/10/31 00:33:18;;;;;;;2.35;2.08;;;;;;;29.15;22.58;98519.69;6247153;23;20012;-80
2022/10/31 00:35:50;;;;;;;3.00;2.70;;;;;;;29.19;22.59;98523.25;6247036;22;20083;-80
2022/10/31 00:38:16;;;;;;;2.10;1.88;;;;;;;29.13;23.00;98510.88;6246738;22;20004;-80
2022/10/31 00:40:42;;;;;;;2.35;1.90;;;;;;;29.25;22.88;98521.38;6246717;23;20031;-80
2022/10/31 00:43:08;;;;;;;3.33;2.65;;;;;;;29.43;22.61;98515.06;6246673;23;20011;-80
2022/10/31 00:45:34;;;;;;;3.63;2.72;;;;;;;29.37;22.65;98522.59;6246673;23;20008;-80
2022/10/31 00:48:00;;;;;;;5.75;3.75;;;;;;;29.24;22.71;98519.78;6246313;23;20004;-80
2022/10/31 00:50:26;;;;;;;4.03;3.03;;;;;;;29.15;22.72;98519.69;6246386;23;20008;-80
2022/10/31 00:52:52;;;;;;;5.70;3.28;;;;;;;29.28;23.06;98523.31;6247027;23;20008;-80
2022/10/31 00:55:18;;;;;;;3.88;3.50;;;;;;;29.14;22.93;98517.34;6245579;23;20042;-80
2022/10/31 00:57:47;;;;;;;7.97;4.10;;;;;;;28.77;23.74;98521.88;6246669;23;20066;-80
2022/10/31 01:00:14;;;;;;;6.82;4.85;;;;;;;28.74;24.32;98520.75;6246368;22;20004;-80
2022/10/31 01:02:40;;;;;;;4.68;3.35;;;;;;;28.91;23.75;98521.38;6245238;23;20015;-80
2022/10/31 01:05:06;;;;;;;5.82;3.97;;;;;;;28.97;23.45;98522.38;6244854;22;20042;-81
2022/10/31 01:07:35;;;;;;;5.00;3.70;;;;;;;29.23;23.11;98528.75;6245896;23;20004;-80
2022/10/31 01:10:01;;;;;;;5.10;3.60;;;;;;;29.48;22.92;98527.88;6246595;22;20015;-80
2022/10/31 01:12:27;;;;;;;4.43;3.25;;;;;;;29.56;22.48;98524.31;6247056;23;20009;-80
2022/10/31 01:14:53;;;;;;;4.22;3.00;;;;;;;29.62;22.33;98524.47;6246758;23;20012;-80
2022/10/31 01:17:19;;;;;;;2.97;2.65;;;;;;;29.62;22.42;98525.28;6245577;23;20011;-80
2022/10/31 01:19:45;;;;;;;5.10;3.53;;;;;;;29.71;22.07;98518.91;6245315;23;20008;-80
2022/10/31 01:22:11;;;;;;;4.65;3.38;;;;;;;29.75;21.83;98523.19;6244881;23;20015;-80
2022/10/31 01:24:37;;;;;;;4.75;3.42;;;;;;;29.85;21.57;98518.41;6246263;23;20011;-80
2022/10/31 01:27:03;;;;;;;5.82;3.50;;;;;;;29.80;21.32;98521.81;6245620;23;20008;-80
2022/10/31 01:29:29;;;;;;;3.65;3.25;;;;;;;29.74;21.44;98518.75;6246665;23;20004;-80
2022/10/31 01:31:55;;;;;;;4.78;3.35;;;;;;;29.60;21.18;98518.50;6246334;23;20043;-80
2022/10/31 01:34:21;;;;;;;4.93;3.72;;;;;;;29.61;21.23;98514.44;6246181;23;20008;-80
2022/10/31 01:36:50;;;;;;;5.13;3.22;;;;;;;29.56;21.40;98506.53;6245939;23;20318;-80
2022/10/31 01:39:18;;;;;;;4.05;3.15;;;;;;;29.54;21.25;98507.00;6246702;22;20043;-80
2022/10/31 01:41:47;;;;;;;3.63;2.78;;;;;;;29.43;21.45;98504.56;6246718;22;20012;-80
2022/10/31 01:44:16;;;;;;;4.30;3.30;;;;;;;29.27;21.76;98506.78;6246498;22;20004;-80
2022/10/31 01:46:53;;;;;;;3.08;2.78;;;;;;;29.40;21.66;98505.50;6245726;23;20031;-80
2022/10/31 01:49:27;;;;;;;4.45;2.88;;;;;;;29.48;21.31;98505.22;6245873;22;20011;-80
2022/10/31 01:52:29;;;;;;;4.25;2.80;;;;;;;29.37;21.23;98500.75;6245959;23;20012;-80
2022/10/31 01:55:02;;;;;;;;;;;;;;;29.20;20.95;98507.84;6245870;22;20070;-80
2022/10/31 01:57:31;;;;;;;2.83;2.45;;;;;;;29.35;20.36;98516.59;6246081;22;19990;-79
2022/10/31 02:00:01;;;;;;;3.33;2.35;;;;;;;29.34;20.89;98506.53;6246042;22;20012;-80
2022/10/31 02:02:29;;;;;;;3.17;2.58;;;;;;;29.31;20.52;98510.28;6246228;22;20038;-80
2022/10/31 02:04:57;;;;;;;4.45;3.15;;;;;;;29.35;20.58;98508.13;6246620;22;20035;-80
2022/10/31 02:07:45;;;;;;;4.07;3.00;;;;;;;29.30;20.67;98511.53;6245671;22;20441;-80
2022/10/31 02:10:11;;;;;;;3.55;3.03;;;;;;;29.28;20.95;98506.34;6244778;22;20039;-80
2022/10/31 02:12:39;;;;;;;4.72;3.63;;;;;;;29.24;20.80;98507.72;6245650;23;20012;-80
2022/10/31 02:15:06;;;;;;;3.40;3.10;;;;;;;29.21;20.94;98502.97;6246376;22;20081;-80
2022/10/31 02:17:33;;;;;;;3.42;3.13;;;;;;;29.26;20.92;98508.03;6245989;22;20008;-80
2022/10/31 02:20:15;;;;;;;4.40;3.10;;;;;;;29.16;20.66;98500.69;6245940;22;20004;-80
2022/10/31 02:22:47;;;;;;;3.25;2.85;;;;;;;28.96;20.59;98501.00;6245810;22;20030;-80
2022/10/31 02:25:23;;;;;;;4.80;3.25;;;;;;;28.58;21.18;98508.75;6245422;23;20032;-80
2022/10/31 02:27:59;;;;;;;4.30;3.15;;;;;;;28.70;21.15;98516.44;6245490;23;20062;-80
2022/10/31 02:30:40;;;;;;;3.72;2.75;;;;;;;28.65;21.02;98511.38;6245617;23;20043;-80
2022/10/31 02:33:11;;;;;;;3.80;3.22;;;;;;;28.30;21.49;98509.69;6245013;22;20011;-80
2022/10/31 02:35:47;;;;;;;4.57;3.92;;;;;;;28.08;21.83;98512.38;6245631;22;20115;-80
2022/10/31 02:38:50;;;;;;;5.32;3.00;;;;;;;28.21;22.11;98524.50;6245451;23;20016;-80
2022/10/31 02:41:22;;;;;;;3.85;3.15;;;;;;;28.53;21.30;98521.41;6245775;23;20039;-80
2022/10/31 02:44:20;;;;;;;6.13;4.13;;;;;;;28.56;21.46;98529.00;6244025;23;20004;-80
2022/10/31 02:46:52;;;;;;;4.05;3.38;;;;;;;28.73;21.34;98524.00;6238018;22;20369;-80
2022/10/31 02:49:40;;;;;;;4.68;3.85;;;;;;;28.87;21.48;98526.34;6245753;22;20011;-80
2022/10/31 02:52:20;;;;;;;5.32;3.90;;;;;;;29.03;21.19;98528.25;6244626;23;20012;-80
2022/10/31 02:54:47;;;;;;;4.40;3.38;;;;;;;29.18;21.15;98526.50;6245553;22;20084;-80
2022/10/31 02:57:17;;;;;;;5.53;3.50;;;;;;;29.23;20.87;98535.22;6244552;22;20180;-80
2022/10/31 02:59:48;;;;;;;4.22;3.15;;;;;;;29.23;21.30;98532.38;6244492;22;20020;-80
2022/10/31 03:02:36;;;;;;;4.22;3.28;;;;;;;29.33;20.79;98528.38;6245779;22;20012;-80
2022/10/31 03:05:25;;;;;;;4.57;3.28;;;;;;;29.34;20.52;98532.78;6245156;23;20009;-80
2022/10/31 03:07:57;;;;;;;3.80;2.83;;;;;;;28.98;20.98;98526.00;6245248;23;20027;-80
2022/10/31 03:10:39;;;;;;;5.00;3.85;;;;;;;29.08;20.97;98534.09;6245454;23;20430;-79
2022/10/31 03:13:20;;;;;;;4.40;3.25;;;;;;;28.90;21.16;98538.78;6244674;22;20323;-80
2022/10/31 03:15:51;;;;;;;4.55;3.35;;;;;;;28.68;21.23;98545.16;6245394;22;20442;-80
2022/10/31 03:18:37;;;;;;;3.75;3.13;;;;;;;28.69;21.58;98551.59;6245657;22;20015;-80
2022/10/31 03:21:13;;;;;;;3.97;3.15;;;;;;;28.88;21.44;98542.06;6245415;22;20015;-80
2022/10/31 03:23:43;;;;;;;4.88;3.40;;;;;;;29.01;21.13;98542.03;6245287;22;20434;-80
2022/10/31 03:26:11;;;;;;;4.55;3.05;;;;;;;28.97;21.42;98544.97;6245061;22;20079;-79
2022/10/31 03:28:54;;;;;;;3.83;3.42;;;;;;;29.06;21.43;98542.25;6245630;22;20008;-80
2022/10/31 03:31:27;;;;;;;3.75;3.10;;;;;;;29.29;21.59;98541.84;6244141;23;20446;-80
2022/10/31 03:33:57;;;;;;;3.17;2.53;;;;;;;29.44;21.11;98547.78;6245035;22;20019;-80
2022/10/31 03:36:25;;;;;;;3.60;3.00;;;;;;;29.59;21.11;98546.03;6244974;22;20012;-80
2022/10/31 03:38:52;;;;;;;5.70;3.28;;;;;;;29.68;20.83;98540.44;6245379;22;20121;-80
2022/10/31 03:41:27;;;;;;;3.42;2.97;;;;;;;29.65;20.35;98541.34;6245705;22;20036;-80
2022/10/31 03:43:59;;;;;;;4.05;2.88;;;;;;;29.45;20.74;98546.56;6244596;22;20004;-80
2022/10/31 03:46:25;;;;;;;4.15;3.05;;;;;;;29.46;20.58;98555.81;6244634;22;20057;-80
2022/10/31 03:48:52;;;;;;;4.45;3.50;;;;;;;29.13;20.54;98553.31;6245416;23;20087;-80
2022/10/31 03:51:29;;;;;;;3.65;3.28;;;;;;;28.80;20.90;98551.25;6245066;22;20015;-80
2022/10/31 03:54:08;;;;;;;3.67;2.65;;;;;;;28.84;21.16;98549.88;6244884;22;20005;-80
2022/10/31 03:56:54;;;;;;;3.35;2.70;;;;;;;28.78;21.06;98550.94;6245424;22;20031;-80
2022/10/31 03:59:30;;;;;;;3.70;3.35;;;;;;;28.72;21.14;98554.31;6244772;22;20031;-80
2022/10/31 04:02:01;;;;;;;3.55;2.83;;;;;;;28.59;21.34;98549.94;6245610;22;20070;-79
2022/10/31 04:04:27;;;;;;;;;;;;;;;28.42;21.45;98551.25;6245152;22;20014;-80
2022/10/31 04:06:57;;;;;;;4.40;3.38;;;;;;;28.65;21.31;98553.75;6245014;22;19982;-80
2022/10/31 04:09:26;;;;;;;3.70;2.90;;;;;;;28.38;21.45;98548.53;6243838;22;20011;-80
2022/10/31 04:11:55;;;;;;;3.13;2.75;;;;;;;28.46;21.10;98554.75;6245473;22;20061;-80
2022/10/31 04:14:24;;;;;;;3.88;3.03;;;;;;;28.71;21.03;98555.56;6245269;22;20004;-80
2022/10/31 04:16:50;;;;;;;3.90;3.03;;;;;;;28.77;20.44;98552.94;6245018;22;20009;-80
2022/10/31 04:19:16;;;;;;;7.20;3.45;;;;;;;28.73;20.74;98555.09;6244230;23;20008;-80
2022/10/31 04:21:43;;;;;;;4.38;3.22;;;;;;;28.68;20.94;98558.50;6245018;23;20016;-80
2022/10/31 04:24:09;;;;;;;3.70;2.80;;;;;;;28.39;21.09;98555.78;6245489;22;20015;-80
2022/10/31 04:26:35;;;;;;;4.57;3.15;;;;;;;28.38;21.40;98556.25;6245180;23;20008;-80
2022/10/31 04:29:02;;;;;;;4.07;2.97;;;;;;;28.47;21.42;98556.34;6245304;23;20437;-80
2022/10/31 04:31:28;;;;;;;3.28;2.70;;;;;;;28.52;21.34;98558.59;6244791;23;20036;-80
2022/10/31 04:33:54;;;;;;;4.22;2.65;;;;;;;28.63;21.25;98556.25;6244052;23;20016;-80
2022/10/31 04:36:20;;;;;;;3.10;2.80;;;;;;;28.80;21.00;98551.25;6246506;22;20019;-80
2022/10/31 04:38:46;;;;;;;3.53;2.83;;;;;;;28.80;21.01;98556.91;6245703;23;20440;-80
2022/10/31 04:41:12;;;;;;;3.88;3.03;;;;;;;28.68;20.89;98559.28;6246988;23;20457;-80
2022/10/31 04:43:38;;;;;;;3.75;2.65;;;;;;;28.53;21.14;98557.34;6246265;23;20008;-80
2022/10/31 04:46:05;;;;;;;3.85;2.72;;;;;;;28.49;21.24;98560.31;6246615;23;20333;-80
2022/10/31 04:48:31;;;;;;;2.50;2.30;;;;;;;28.58;21.19;98563.22;6246830;23;20014;-80
2022/10/31 04:51:01;;;;;;;3.40;2.35;;;;;;;28.57;21.14;98558.03;6246729;23;20008;-80
2022/10/31 04:53:28;;;;;;;3.85;2.60;;;;;;;28.69;21.01;98560.06;6246608;22;20012;-79
2022/10/31 04:55:54;;;;;;;4.53;3.15;;;;;;;28.45;21.06;98561.66;6247024;22;20442;-80
2022/10/31 04:58:20;;;;;;;5.30;3.25;;;;;;;28.17;21.28;98554.09;6245952;23;20008;-80
2022/10/31 05:00:46;;;;;;;3.97;2.92;;;;;;;28.15;21.57;98562.19;6246311;23;20004;-79
2022/10/31 05:03:12;;;;;;;4.50;3.00;;;;;;;28.28;21.61;98558.16;6245880;23;20338;-81
2022/10/31 05:05:42;;;;;;;2.75;2.33;;;;;;;28.33;21.95;98557.59;6245670;23;20032;-80
2022/10/31 05:08:08;;;;;;;4.15;2.78;;;;;;;28.45;21.06;98553.97;6246130;22;20018;-80
2022/10/31 05:10:34;;;;;;;4.22;2.70;;;;;;;28.27;21.16;98558.59;6245547;23;20012;-80
2022/10/31 05:13:01;;;;;;;2.65;2.25;;;;;;;28.34;21.12;98556.34;6245511;23;20008;-80
2022/10/31 05:15:28;;;;;;;4.05;2.63;;;;;;;28.46;20.79;98560.41;6245036;22;20015;-80
2022/10/31 05:17:55;;;;;;;3.17;2.47;;;;;;;28.54;20.51;98553.28;6243939;23;20008;-80
2022/10/31 05:20:24;;;;;;;2.42;2.22;;;;;;;28.51;20.43;98557.81;6245258;23;20008;-79
2022/10/31 05:22:52;;;;;;;3.85;2.35;;;;;;;28.27;20.74;98562.22;6244136;22;20005;-79
2022/10/31 05:25:26;;;;;;;3.47;2.72;;;;;;;28.04;21.26;98562.53;6244694;22;20391;-79
2022/10/31 05:27:53;;;;;;;3.45;2.58;;;;;;;27.92;21.38;98558.41;6245389;22;20000;-79
2022/10/31 05:30:23;;;;;;;2.22;2.03;;;;;;;27.87;21.63;98561.78;6244020;22;20008;-80
2022/10/31 05:32:50;;;;;;;2.92;2.33;;;;;;;27.83;21.61;98566.75;6244069;22;20633;-79
2022/10/31 05:35:19;;;;;;;2.33;2.13;;;;;;;28.09;21.52;98567.63;6244726;22;20008;-79
2022/10/31 05:37:45;;;;;;;4.10;2.25;;;;;;;28.37;20.95;98580.06;6245253;22;20039;-79
2022/10/31 05:40:13;;;;;;;2.85;2.38;;;;;;;28.48;20.80;98574.88;6244337;23;20067;-79
2022/10/31 05:42:41;;;;;;;4.93;2.47;;;;;;;28.51;20.80;98579.63;6244967;22;20008;-80
2022/10/31 05:45:13;;;;;;;2.58;2.33;;;;;;;28.53;20.71;98586.41;6244883;22;20004;-79
2022/10/31 05:47:39;;;;;;;3.05;2.70;;;;;;;28.64;20.75;98581.22;6243567;22;20019;-79
2022/10/31 05:50:07;;;;;;;4.05;3.08;;;;;;;28.63;20.55;98584.50;6244054;22;20083;-79
2022/10/31 05:52:34;;;;;;;3.83;2.80;;;;;;;28.68;20.71;98590.38;6244762;22;20005;-80
2022/10/31 05:55:00;;;;;;;3.35;2.97;;;;;;;28.77;20.27;98598.19;6245031;23;20418;-80
2022/10/31 05:57:26;;;;;;;2.60;2.40;;;;;;;28.44;20.78;98593.97;6245411;23;20008;-79
2022/10/31 05:59:52;;;;;;;2.40;2.20;;;;;;;28.25;21.27;98598.59;6245628;23;20023;-79
2022/10/31 06:02:20;;;;;;;3.15;2.25;;;;;;;28.29;21.06;98604.91;6245548;22;20091;-79
2022/10/31 06:04:49;;;;;;;3.22;2.70;;;;;;;28.31;20.90;98602.41;6245536;22;20334;-80
2022/10/31 06:07:15;;;;;;;2.97;2.42;;;;;;;28.29;21.56;98606.94;6245075;22;20012;-79
2022/10/31 06:09:41;;;;;;;3.58;2.25;;;;;;;28.43;21.07;98610.13;6245932;23;20066;-80
2022/10/31 06:12:07;;;;;;;2.75;2.45;;;;;;;28.42;21.28;98616.22;6245745;23;20023;-80
2022/10/31 06:14:33;;;;;;;3.67;2.50;;;;;;;28.49;21.34;98613.19;6245043;23;20004;-80
2022/10/31 06:16:59;;;;;;;2.60;2.40;;;;;;;28.61;21.09;98618.09;6243849;23;20087;-80
2022/10/31 06:19:25;;;;;;;2.28;2.00;;;;;;;28.80;21.20;98619.84;6245095;23;20008;-80
2022/10/31 06:21:51;;;;;;;3.85;2.17;;;;;;;28.82;21.32;98623.06;6245263;23;20008;-80
2022/10/31 06:24:17;;;;;;;4.05;2.65;;;;;;;29.01;21.35;98624.81;6245036;23;20012;-80
2022/10/31 06:26:43;;;;;;;2.28;1.85;;;;;;;29.17;21.28;98630.31;6245426;23;20039;-80
2022/10/31 06:29:09;;;;;;;2.60;2.35;;;;;;;29.32;21.06;98628.63;6244715;23;20464;-80
2022/10/31 06:31:35;;;;;;;3.20;2.65;;;;;;;29.49;21.06;98634.13;6245370;23;20012;-80
2022/10/31 06:34:01;;;;;;;4.55;2.30;;;;;;;29.48;21.17;98639.00;6245381;23;20468;-79
2022/10/31 06:36:27;;;;;;;3.33;2.13;;;;;;;29.55;21.21;98630.25;6245844;23;20043;-80
2022/10/31 06:38:53;;;;;;;2.95;2.47;;;;;;;29.45;21.42;98630.63;6245976;23;20004;-80
2022/10/31 06:41:22;;;;;;;3.85;2.55;;;;;;;29.63;21.33;98631.59;6245627;23;20011;-81
2022/10/31 06:43:48;;;;;;;4.10;2.75;;;;;;;29.84;21.38;98636.50;6245018;22;20008;-79
2022/10/31 06:46:14;;;;;;;3.38;2.40;;;;;;;29.87;21.02;98634.81;6245494;23;20012;-80
2022/10/31 06:48:41;;;;;;;3.13;2.47;;;;;;;29.89;21.21;98635.13;6245188;23;20012;-79
2022/10/31 06:51:08;;;;;;;3.60;2.60;;;;;;;29.52;21.75;98634.00;6244543;22;20019;-80
2022/10/31 06:53:34;;;;;;;4.93;2.40;;;;;;;29.62;21.64;98632.03;6245609;23;20011;-80
2022/10/31 06:56:00;;;;;;;2.35;2.13;;;;;;;29.80;21.65;98635.81;6245952;23;20008;-79
2022/10/31 06:58:26;;;;;;;4.45;2.95;;;;;;;29.45;22.03;98650.44;6243550;23;20015;-80
2022/10/31 07:00:52;;;;;;;2.95;2.42;;;;;;;29.15;22.64;98649.78;6243984;23;20008;-80
2022/10/31 07:03:21;;;;;;;4.45;2.78;;;;;;;29.23;22.60;98644.72;6245247;23;20434;-79
2022/10/31 07:05:47;;;;;;;5.15;3.20;;;;;;;29.66;22.30;98639.16;6245592;23;20512;-79
2022/10/31 07:08:14;;;;;;;5.45;3.00;;;;;;;29.79;22.67;98644.78;6245776;23;20012;-80
2022/10/31 07:10:42;;;;;;;4.55;3.03;;;;;;;29.96;22.39;98649.03;6245441;23;20012;-80
2022/10/31 07:13:13;;;;;;;3.42;2.90;;;;;;;30.20;22.17;98638.78;6245678;22;20397;-80
2022/10/31 07:15:41;;;;;;;4.68;2.72;;;;;;;30.44;22.05;98641.94;6245938;22;20091;-79
2022/10/31 07:18:10;;;;;;;4.25;3.03;;;;;;;30.59;22.28;98640.16;6245497;22;20012;-80
2022/10/31 07:20:36;;;;;;;3.90;3.03;;;;;;;30.73;22.42;98639.59;6245550;22;20111;-80
2022/10/31 07:23:03;;;;;;;2.95;2.65;;;;;;;30.91;22.42;98647.38;6245840;23;20011;-80
2022/10/31 07:25:32;;;;;;;4.65;3.22;;;;;;;31.05;22.31;98646.81;6245596;22;20027;-80
2022/10/31 07:27:58;;;;;;;5.65;3.38;;;;;;;31.23;22.29;98644.00;6245307;23;20044;-80
2022/10/31 07:30:25;;;;;;;4.47;2.60;;;;;;;31.21;22.36;98635.97;6245237;23;20012;-79
2022/10/31 07:32:51;;;;;;;4.30;3.22;;;;;;;31.28;22.40;98643.38;6218767;23;20018;-80
2022/10/31 07:35:20;;;;;;;3.85;3.35;;;;;;;31.35;22.25;98643.09;6245626;23;20087;-80
2022/10/31 07:37:46;;;;;;;4.35;2.80;;;;;;;31.52;22.51;98637.94;6244846;22;20036;-80
2022/10/31 07:40:13;;;;;;;4.07;2.75;;;;;;;31.65;21.93;98636.53;6245237;23;20042;-81
2022/10/31 07:42:47;;;;;;;3.75;2.75;;;;;;;31.72;22.22;98641.88;6245524;22;20008;-80
2022/10/31 07:45:20;;;;;;;4.18;3.28;;;;;;;31.83;22.18;98647.09;6245656;22;20011;-82
2022/10/31 07:47:51;;;;;;;3.78;2.90;;;;;;;32.06;22.13;98643.66;6245345;22;20490;-81
2022/10/31 07:50:20;;;;;;;3.67;2.55;;;;;;;32.16;21.80;98639.50;6245436;22;20011;-81
2022/10/31 07:52:46;;;;;;;4.22;2.50;;;;;;;32.24;22.16;98639.97;6245673;22;20036;-80
2022/10/31 07:55:15;;;;;;;3.95;3.08;;;;;;;32.16;22.57;98644.41;6244827;22;20452;-81
2022/10/31 07:57:41;;;;;;;4.55;2.97;;;;;;;32.28;22.16;98643.47;6240917;23;20012;-80
2022/10/31 08:00:10;;;;;;;5.15;3.15;;;;;;;32.37;22.26;98646.28;6245474;23;20430;-81
2022/10/31 08:02:39;;;;;;;5.05;3.15;;;;;;;32.43;22.06;98644.34;6246427;22;20062;-81
2022/10/31 08:05:05;;;;;;;5.97;3.42;;;;;;;32.52;22.20;98647.19;6245013;23;20004;-83
2022/10/31 08:07:37;;;;;;;4.78;2.75;;;;;;;32.52;22.15;98648.00;6245312;22;20004;-81
2022/10/31 08:10:03;;;;;;;5.00;2.60;;;;;;;32.60;22.39;98651.28;6247097;22;20008;-82
2022/10/31 08:12:33;;;;;;;4.35;2.70;;;;;;;32.32;23.24;98649.75;6247370;22;20062;-81
2022/10/31 08:14:59;;;;;;;3.58;2.78;;;;;;;32.61;22.27;98652.84;6246020;23;20008;-82
2022/10/31 08:17:25;;;;;;;4.18;3.13;;;;;;;32.70;22.41;98647.13;6247255;23;20008;-80
2022/10/31 08:19:57;;;;;;;3.63;2.78;;;;;;;32.71;22.70;98648.72;6246581;23;20019;-80
2022/10/31 08:22:23;;;;;;;3.72;3.00;;;;;;;32.75;22.84;98646.47;6246331;22;20057;-82
2022/10/31 08:24:49;;;;;;;4.32;3.28;;;;;;;32.75;23.22;98650.13;6246599;23;20372;-82
2022/10/31 08:27:15;;;;;;;4.80;3.05;;;;;;;32.86;22.29;98648.81;6246957;23;20016;-81
2022/10/31 08:29:41;;;;;;;5.38;3.22;;;;;;;32.89;22.60;98653.53;6247423;23;20066;-81
2022/10/31 08:32:10;;;;;;;4.45;2.70;;;;;;;32.94;22.64;98653.66;6244177;23;20008;-81
2022/10/31 08:34:49;;;;;;;3.58;2.95;;;;;;;33.00;22.81;98654.56;6220625;23;20011;-82
2022/10/31 08:37:19;;;;;;;5.25;3.70;;;;;;;33.07;22.46;98659.94;6244538;23;20081;-81
2022/10/31 08:39:48;;;;;;;3.08;2.78;;;;;;;32.97;22.79;98655.56;6246154;22;20044;-81
2022/10/31 08:42:14;;;;;;;6.10;3.17;;;;;;;33.21;22.77;98653.53;6243863;23;20012;-81
2022/10/31 08:44:41;;;;;;;4.80;2.67;;;;;;;33.38;22.54;98649.03;6246971;23;20004;-81
2022/10/31 08:47:07;;;;;;;4.05;2.53;;;;;;;33.11;22.46;98649.19;6247024;22;20015;-82
2022/10/31 08:49:35;;;;;;;4.80;2.65;;;;;;;32.91;22.91;98660.31;6245092;23;20019;-81
2022/10/31 08:52:25;;;;;;;7.63;2.80;;;;;;;33.24;23.02;98655.44;6245613;23;20386;-82
2022/10/31 08:54:51;;;;;;;4.18;2.65;;;;;;;33.47;22.75;98650.25;6244152;23;20015;-81
2022/10/31 08:57:23;;;;;;;5.93;3.30;;;;;;;33.69;22.70;98654.38;6246340;23;20008;-80
2022/10/31 08:59:49;;;;;;;3.75;2.58;;;;;;;33.72;21.95;98649.75;6246424;22;20047;-81
2022/10/31 09:02:36;;;;;;;4.50;2.83;;;;;;;33.74;22.98;98645.16;6246307;23;20012;-81
2022/10/31 09:05:02;;;;;;;6.07;2.67;;;;;;;33.90;22.45;98658.16;6246916;22;20042;-81
2022/10/31 09:07:29;;;;;;;4.65;2.65;;;;;;;33.87;23.18;98647.72;6246585;23;20008;-81
2022/10/31 09:09:55;;;;;;;4.32;3.05;;;;;;;33.98;22.69;98647.97;6245744;23;20545;-81
2022/10/31 09:12:24;;;;;;;2.78;2.47;;;;;;;34.01;23.01;98646.97;6246757;22;20019;-82
2022/10/31 09:14:53;;;;;;;5.03;2.30;;;;;;;34.06;22.75;98649.97;6244937;23;20008;-82
2022/10/31 09:17:20;;;;;;;5.68;2.80;;;;;;;34.15;22.80;98648.28;6246607;23;20004;-82
2022/10/31 09:19:46;;;;;;;4.03;2.42;;;;;;;33.99;22.68;98650.31;6246664;23;20020;-81
2022/10/31 09:22:12;;;;;;;3.90;2.90;;;;;;;33.86;22.48;98651.84;6246681;23;20004;-81
2022/10/31 09:24:38;;;;;;;6.28;2.20;;;;;;;33.92;22.87;98652.75;6246330;23;20434;-81
2022/10/31 09:27:04;;;;;;;5.05;2.13;;;;;;;34.06;22.90;98654.88;6246702;23;20018;-81
2022/10/31 09:29:33;;;;;;;2.80;2.40;;;;;;;34.20;22.25;98651.25;6246519;23;20422;-81
2022/10/31 09:31:59;;;;;;;4.85;2.30;;;;;;;34.20;22.54;98647.59;6246618;23;20008;-80
2022/10/31 09:34:26;;;;;;;3.03;2.53;;;;;;;33.97;23.15;98650.00;6246038;23;20016;-81
2022/10/31 09:36:54;;;;;;;3.25;2.50;;;;;;;34.36;22.76;98644.25;6245960;22;20004;-82
2022/10/31 09:39:24;;;;;;;3.08;2.30;;;;;;;34.49;22.13;98648.41;6245415;23;20008;-82
2022/10/31 09:42:06;;;;;;;2.00;1.90;;;;;;;34.65;23.31;98650.78;6245984;23;20087;-81
2022/10/31 09:44:38;;;;;;;2.95;2.28;;;;;;;34.61;22.81;98646.56;6246152;22;20342;-82
2022/10/31 09:47:29;;;;;;;4.70;2.10;;;;;;;34.72;22.60;98647.53;6245676;23;20023;-80
2022/10/31 09:50:21;;;;;;;3.90;2.15;;;;;;;34.65;23.33;98656.50;6245926;22;20012;-80
2022/10/31 09:53:05;;;;;;;4.80;1.75;;;;;;;33.24;22.89;98651.78;6245752;22;20462;-80
2022/10/31 09:55:39;;;;;;;2.67;2.00;;;;;;;31.14;26.98;98655.34;6245665;22;20004;-81
2022/10/31 09:58:08;;;;;;;5.30;2.20;;;;;;;30.33;28.15;98652.91;6245402;22;20576;-81
2022/10/31 10:00:35;;;;;;;2.97;2.10;;;;;;;31.01;26.34;98655.47;6245569;22;20008;-82
2022/10/31 10:03:21;;;;;;;4.35;2.42;;;;;;;30.40;27.68;98655.47;6245991;22;20004;-82
2022/10/31 10:06:11;;;;;;;7.35;2.70;;;;;;;30.21;28.74;98659.41;6245091;22;20004;-81
2022/10/31 10:08:38;;;;;;;6.65;3.00;;;;;;;30.16;29.54;98663.63;6245291;23;20066;-82
2022/10/31 10:11:40;;;;;;;6.80;2.67;;;;;;;31.20;26.85;98662.00;6244656;23;20008;-82
2022/10/31 10:14:35;;;;;;;5.90;2.80;;;;;;;31.34;26.42;98653.63;6245273;22;20035;-82
2022/10/31 10:17:43;;;;;;;4.88;3.10;;;;;;;31.37;25.79;98649.88;6245423;22;20095;-81
2022/10/31 10:20:19;;;;;;;6.63;3.35;;;;;;;31.65;26.86;98658.47;6239316;23;20012;-80
2022/10/31 10:23:12;;;;;;;6.75;3.50;;;;;;;32.21;25.31;98653.06;6245008;22;20079;-81
2022/10/31 10:25:40;;;;;;;3.30;2.83;;;;;;;31.39;27.60;98653.03;6243649;23;20012;-81
2022/10/31 10:28:32;;;;;;;7.57;3.63;;;;;;;31.61;26.19;98652.13;6244639;22;20350;-81
2022/10/31 10:31:22;;;;;;;7.60;3.33;;;;;;;31.98;28.15;98643.16;6243536;23;20023;-81
2022/10/31 10:34:05;;;;;;;5.45;3.13;;;;;;;31.26;25.67;98649.53;6245024;23;20015;-81
2022/10/31 10:36:44;;;;;;;6.70;4.00;;;;;;;31.90;24.65;98646.78;6245113;22;20445;-81
2022/10/31 10:39:25;;;;;;;7.97;3.50;;;;;;;32.08;24.76;98638.28;6244782;22;20430;-81
2022/10/31 10:47:41;;;;;;;12.32;3.83;;;;;;;32.27;25.70;98639.81;6244847;23;20027;-81
2022/10/31 10:50:17;;;;;;;6.07;3.53;;;;;;;31.84;27.11;98640.94;6245099;22;20389;-81
2022/10/31 10:52:59;;;;;;;5.60;3.67;;;;;;;31.96;26.64;98642.03;6245223;22;20038;-81
2022/10/31 10:55:30;;;;;;;5.45;3.22;;;;;;;32.50;24.64;98641.19;6243085;23;20015;-81
2022/10/31 10:57:58;;;;;;;;;;;;;;;32.00;24.24;98643.47;6245638;23;20012;-81
2022/10/31 11:00:40;;;;;;;7.47;3.70;;;;;;;31.97;28.21;98640.81;6244769;22;19908;-81
2022/10/31 11:03:07;;;;;;;7.80;3.35;;;;;;;32.07;27.45;98633.84;6244804;22;20008;-81
2022/10/31 11:05:50;;;;;;;9.20;4.30;;;;;;;31.95;24.29;98634.78;6244801;22;20035;-81
2022/10/31 11:08:29;;;;;;;5.78;3.00;;;;;;;31.94;26.42;98636.84;6244931;22;20064;-81
2022/10/31 11:11:17;;;;;;;4.53;3.58;;;;;;;31.67;28.76;98641.75;6244477;23;20078;-80
2022/10/31 11:13:46;;;;;;;7.03;3.50;;;;;;;32.21;28.01;98640.94;6245001;23;20078;-81
2022/10/31 11:16:26;;;;;;;7.28;4.15;;;;;;;31.23;30.55;98632.66;6244658;22;20008;-82
2022/10/31 11:18:53;;;;;;;5.47;3.57;;;;;;;32.18;27.35;98633.38;6244474;22;20016;-83
2022/10/31 11:21:28;;;;;;;7.70;3.67;;;;;;;32.67;26.33;98634.66;6244835;22;20245;-82
2022/10/31 11:24:10;;;;;;;7.10;4.10;;;;;;;32.89;23.83;98628.72;6244772;22;20016;-83
2022/10/31 11:26:38;;;;;;;8.13;4.40;;;;;;;32.27;27.38;98621.97;6244836;23;20012;-82
2022/10/31 11:29:10;;;;;;;9.00;4.13;;;;;;;32.70;23.55;98630.84;6244403;22;20023;-82
2022/10/31 11:31:36;;;;;;;8.15;3.97;;;;;;;33.10;23.40;98635.44;6244640;22;20085;-82
2022/10/31 11:34:06;;;;;;;8.18;4.13;;;;;;;31.83;26.88;98635.75;6244136;23;20019;-82
2022/10/31 11:36:37;;;;;;;6.43;3.55;;;;;;;32.30;27.60;98626.72;6244138;22;20015;-82
2022/10/31 11:39:14;;;;;;;6.80;3.75;;;;;;;32.82;26.94;98631.13;6244326;22;20005;-82
2022/10/31 11:41:44;;;;;;;5.82;3.50;;;;;;;33.53;23.64;98634.09;6244808;22;20074;-82
2022/10/31 11:44:26;;;;;;;5.32;3.65;;;;;;;33.05;26.08;98639.72;6246673;22;20000;-82
2022/10/31 11:46:57;;;;;;;7.40;3.97;;;;;;;32.81;27.56;98627.50;6246762;22;20016;-81
2022/10/31 11:49:34;;;;;;;5.78;3.83;;;;;;;32.50;27.96;98627.78;6246585;22;20005;-82
2022/10/31 11:52:25;;;;;;;8.32;4.35;;;;;;;32.95;23.34;98611.78;6246884;22;20062;-82
2022/10/31 11:54:56;;;;;;;6.00;3.60;;;;;;;33.34;28.41;98624.84;6246701;22;20426;-81
2022/10/31 12:00:38;;;;;;;7.57;3.72;;;;;;;33.94;21.52;98616.00;6245908;23;20050;-82